sensor_id;sensor_type;location;lat;lon;timestamp;P1;durP1;ratioP1;P2;durP2;ratioP2
32451;SDS011;45528;52.102;5.242;2022-07-29T00:02:32;1.6;;;1.0;;
32451;SDS011;45528;52.102;5.242;2022-07-29T00:04:19;1.8;;;1.0;;
32451;SDS011;45528;52.102;5.242;2022-07-29T00:06:06;2.4;;;1.11;;
32451;SDS011;45528;52.102;5.242;2022-07-29T00:07:53;2.7;;;0.9;;
32451;SDS011;45528;52.102;5.242;2022-07-29T00:09:40;3.0;;;1.2;;
32451;SDS011;45528;52.102;5.242;2022-07-29T00:11:27;3.5;;;1.11;;
32451;SDS011;45528;52.102;5.242;2022-07-29T00:15:01;3.8;;;1.11;;
32451;SDS011;45528;52.102;5.242;2022-07-29T00:16:48;3.9;;;1.2;;
32451;SDS011;45528;52.102;5.242;2022-07-29T00:18:34;2.8;;;1.11;;
32451;SDS011;45528;52.102;5.242;2022-07-29T00:20:20;3.4;;;1.3;;
32451;SDS011;45528;52.102;5.242;2022-07-29T00:22:06;2.5;;;1.2;;
32451;SDS011;45528;52.102;5.242;2022-07-29T00:23:53;2.1;;;1.0;;
32451;SDS011;45528;52.102;5.242;2022-07-29T00:27:26;3.3;;;0.9;;
32451;SDS011;45528;52.102;5.242;2022-07-29T00:29:12;5.0;;;1.2;;
32451;SDS011;45528;52.102;5.242;2022-07-29T00:30:58;3.3;;;1.0;;
32451;SDS011;45528;52.102;5.242;2022-07-29T00:32:44;4.5;;;1.3;;
32451;SDS011;45528;52.102;5.242;2022-07-29T00:37:33;3.5;;;1.2;;
32451;SDS011;45528;52.102;5.242;2022-07-29T00:39:19;3.5;;;1.2;;
32451;SDS011;45528;52.102;5.242;2022-07-29T00:41:05;2.4;;;1.2;;
32451;SDS011;45528;52.102;5.242;2022-07-29T00:42:51;3.9;;;1.0;;
32451;SDS011;45528;52.102;5.242;2022-07-29T00:46:25;2.8;;;0.9;;
32451;SDS011;45528;52.102;5.242;2022-07-29T00:48:12;3.2;;;1.4;;
32451;SDS011;45528;52.102;5.242;2022-07-29T00:49:59;2.0;;;1.0;;
32451;SDS011;45528;52.102;5.242;2022-07-29T00:51:46;3.5;;;1.0;;
32451;SDS011;45528;52.102;5.242;2022-07-29T00:53:35;4.8;;;1.11;;
32451;SDS011;45528;52.102;5.242;2022-07-29T00:55:22;3.4;;;1.11;;
32451;SDS011;45528;52.102;5.242;2022-07-29T00:58:57;2.9;;;1.0;;
32451;SDS011;45528;52.102;5.242;2022-07-29T01:00:44;1.5;;;1.0;;
32451;SDS011;45528;52.102;5.242;2022-07-29T01:02:31;2.1;;;0.9;;
32451;SDS011;45528;52.102;5.242;2022-07-29T01:04:18;2.9;;;1.11;;
32451;SDS011;45528;52.102;5.242;2022-07-29T01:06:05;4.3;;;1.11;;
32451;SDS011;45528;52.102;5.242;2022-07-29T01:07:53;3.2;;;1.0;;
32451;SDS011;45528;52.102;5.242;2022-07-29T01:11:32;3.9;;;1.11;;
32451;SDS011;45528;52.102;5.242;2022-07-29T01:13:20;2.31;;;1.11;;
32451;SDS011;45528;52.102;5.242;2022-07-29T01:15:07;3.0;;;1.0;;
32451;SDS011;45528;52.102;5.242;2022-07-29T01:16:56;1.4;;;0.9;;
32451;SDS011;45528;52.102;5.242;2022-07-29T01:19:00;2.1;;;1.2;;
32451;SDS011;45528;52.102;5.242;2022-07-29T01:21:08;3.1;;;0.9;;
32451;SDS011;45528;52.102;5.242;2022-07-29T01:24:11;3.6;;;1.0;;
32451;SDS011;45528;52.102;5.242;2022-07-29T01:26:49;4.41;;;1.11;;
32451;SDS011;45528;52.102;5.242;2022-07-29T01:28:47;2.1;;;0.9;;
32451;SDS011;45528;52.102;5.242;2022-07-29T01:30:45;2.7;;;1.0;;
32451;SDS011;45528;52.102;5.242;2022-07-29T01:36:22;6.2;;;1.2;;
32451;SDS011;45528;52.102;5.242;2022-07-29T01:38:13;2.0;;;1.11;;
32451;SDS011;45528;52.102;5.242;2022-07-29T01:40:08;2.5;;;1.3;;
32451;SDS011;45528;52.102;5.242;2022-07-29T01:42:08;2.4;;;1.11;;
32451;SDS011;45528;52.102;5.242;2022-07-29T01:44:02;1.8;;;1.0;;
32451;SDS011;45528;52.102;5.242;2022-07-29T01:46:00;5.0;;;1.3;;
32451;SDS011;45528;52.102;5.242;2022-07-29T01:47:54;2.4;;;1.11;;
32451;SDS011;45528;52.102;5.242;2022-07-29T01:49:50;1.7;;;1.0;;
32451;SDS011;45528;52.102;5.242;2022-07-29T01:51:41;3.7;;;1.3;;
32451;SDS011;45528;52.102;5.242;2022-07-29T01:55:38;2.7;;;1.11;;
32451;SDS011;45528;52.102;5.242;2022-07-29T01:57:30;2.1;;;1.11;;
32451;SDS011;45528;52.102;5.242;2022-07-29T01:59:19;2.0;;;1.0;;
32451;SDS011;45528;52.102;5.242;2022-07-29T02:01:07;1.7;;;1.11;;
32451;SDS011;45528;52.102;5.242;2022-07-29T02:02:56;1.6;;;1.2;;
32451;SDS011;45528;52.102;5.242;2022-07-29T02:04:48;2.4;;;1.2;;
32451;SDS011;45528;52.102;5.242;2022-07-29T02:06:37;2.6;;;1.11;;
32451;SDS011;45528;52.102;5.242;2022-07-29T02:08:26;3.1;;;1.4;;
32451;SDS011;45528;52.102;5.242;2022-07-29T02:12:08;1.8;;;1.11;;
32451;SDS011;45528;52.102;5.242;2022-07-29T02:13:58;2.6;;;1.3;;
32451;SDS011;45528;52.102;5.242;2022-07-29T02:15:47;2.1;;;0.9;;
32451;SDS011;45528;52.102;5.242;2022-07-29T02:17:39;2.8;;;1.2;;
32451;SDS011;45528;52.102;5.242;2022-07-29T02:19:30;5.2;;;1.3;;
32451;SDS011;45528;52.102;5.242;2022-07-29T02:21:19;3.5;;;1.11;;
32451;SDS011;45528;52.102;5.242;2022-07-29T02:23:10;4.7;;;1.3;;
32451;SDS011;45528;52.102;5.242;2022-07-29T02:26:47;3.3;;;1.2;;
32451;SDS011;45528;52.102;5.242;2022-07-29T02:28:36;3.1;;;1.3;;
32451;SDS011;45528;52.102;5.242;2022-07-29T02:30:23;4.0;;;1.2;;
32451;SDS011;45528;52.102;5.242;2022-07-29T02:32:11;3.0;;;1.2;;
32451;SDS011;45528;52.102;5.242;2022-07-29T02:34:02;4.0;;;1.4;;
32451;SDS011;45528;52.102;5.242;2022-07-29T02:35:52;3.8;;;1.3;;
32451;SDS011;45528;52.102;5.242;2022-07-29T02:39:29;3.3;;;1.2;;
32451;SDS011;45528;52.102;5.242;2022-07-29T02:41:18;3.7;;;1.2;;
32451;SDS011;45528;52.102;5.242;2022-07-29T02:43:08;2.5;;;1.3;;
32451;SDS011;45528;52.102;5.242;2022-07-29T02:44:56;2.8;;;1.3;;
32451;SDS011;45528;52.102;5.242;2022-07-29T02:46:45;2.21;;;1.4;;
32451;SDS011;45528;52.102;5.242;2022-07-29T02:48:37;5.11;;;1.4;;
32451;SDS011;45528;52.102;5.242;2022-07-29T02:50:29;3.1;;;1.3;;
32451;SDS011;45528;52.102;5.242;2022-07-29T02:54:16;3.2;;;1.3;;
32451;SDS011;45528;52.102;5.242;2022-07-29T02:56:10;3.6;;;1.11;;
32451;SDS011;45528;52.102;5.242;2022-07-29T02:58:01;2.6;;;1.2;;
32451;SDS011;45528;52.102;5.242;2022-07-29T02:59:52;3.1;;;1.3;;
32451;SDS011;45528;52.102;5.242;2022-07-29T03:01:43;3.1;;;1.2;;
32451;SDS011;45528;52.102;5.242;2022-07-29T03:03:32;2.6;;;1.5;;
32451;SDS011;45528;52.102;5.242;2022-07-29T03:05:21;2.6;;;1.4;;
32451;SDS011;45528;52.102;5.242;2022-07-29T03:07:08;4.8;;;1.4;;
32451;SDS011;45528;52.102;5.242;2022-07-29T03:10:47;3.0;;;1.4;;
32451;SDS011;45528;52.102;5.242;2022-07-29T03:12:34;4.1;;;1.4;;
32451;SDS011;45528;52.102;5.242;2022-07-29T03:14:22;3.2;;;1.3;;
32451;SDS011;45528;52.102;5.242;2022-07-29T03:16:10;3.5;;;1.6;;
32451;SDS011;45528;52.102;5.242;2022-07-29T03:17:58;2.31;;;1.5;;
32451;SDS011;45528;52.102;5.242;2022-07-29T03:19:45;5.5;;;1.7;;
32451;SDS011;45528;52.102;5.242;2022-07-29T03:23:21;4.1;;;1.5;;
32451;SDS011;45528;52.102;5.242;2022-07-29T03:25:10;3.4;;;1.3;;
32451;SDS011;45528;52.102;5.242;2022-07-29T03:26:59;3.2;;;1.4;;
32451;SDS011;45528;52.102;5.242;2022-07-29T03:28:46;2.7;;;1.4;;
32451;SDS011;45528;52.102;5.242;2022-07-29T03:30:33;4.61;;;1.5;;
32451;SDS011;45528;52.102;5.242;2022-07-29T03:32:19;4.8;;;1.5;;
32451;SDS011;45528;52.102;5.242;2022-07-29T03:35:52;3.8;;;1.5;;
32451;SDS011;45528;52.102;5.242;2022-07-29T03:37:38;3.7;;;1.4;;
32451;SDS011;45528;52.102;5.242;2022-07-29T03:39:25;4.5;;;1.6;;
32451;SDS011;45528;52.102;5.242;2022-07-29T03:41:16;3.8;;;1.6;;
32451;SDS011;45528;52.102;5.242;2022-07-29T03:43:05;4.1;;;1.7;;
32451;SDS011;45528;52.102;5.242;2022-07-29T03:44:56;4.91;;;1.7;;
32451;SDS011;45528;52.102;5.242;2022-07-29T03:46:45;2.9;;;1.6;;
32451;SDS011;45528;52.102;5.242;2022-07-29T03:50:25;3.4;;;1.4;;
32451;SDS011;45528;52.102;5.242;2022-07-29T03:52:12;3.2;;;1.4;;
32451;SDS011;45528;52.102;5.242;2022-07-29T03:54:00;3.2;;;1.4;;
32451;SDS011;45528;52.102;5.242;2022-07-29T03:55:48;4.1;;;1.4;;
32451;SDS011;45528;52.102;5.242;2022-07-29T03:57:40;4.8;;;1.7;;
32451;SDS011;45528;52.102;5.242;2022-07-29T03:59:28;3.5;;;1.7;;
32451;SDS011;45528;52.102;5.242;2022-07-29T04:03:06;2.7;;;1.5;;
32451;SDS011;45528;52.102;5.242;2022-07-29T04:04:54;3.6;;;1.7;;
32451;SDS011;45528;52.102;5.242;2022-07-29T04:06:42;4.61;;;1.8;;
32451;SDS011;45528;52.102;5.242;2022-07-29T04:08:31;5.6;;;1.7;;
32451;SDS011;45528;52.102;5.242;2022-07-29T04:10:19;5.4;;;1.9;;
32451;SDS011;45528;52.102;5.242;2022-07-29T04:12:05;4.2;;;1.6;;
32451;SDS011;45528;52.102;5.242;2022-07-29T04:15:38;5.3;;;1.5;;
32451;SDS011;45528;52.102;5.242;2022-07-29T04:17:25;4.41;;;1.7;;
32451;SDS011;45528;52.102;5.242;2022-07-29T04:19:11;3.6;;;1.8;;
32451;SDS011;45528;52.102;5.242;2022-07-29T04:21:00;3.4;;;1.8;;
32451;SDS011;45528;52.102;5.242;2022-07-29T04:22:47;4.1;;;1.7;;
32451;SDS011;45528;52.102;5.242;2022-07-29T04:24:34;4.1;;;1.9;;
32451;SDS011;45528;52.102;5.242;2022-07-29T04:28:08;5.2;;;1.5;;
32451;SDS011;45528;52.102;5.242;2022-07-29T04:29:56;3.7;;;1.7;;
32451;SDS011;45528;52.102;5.242;2022-07-29T04:31:42;2.6;;;1.4;;
32451;SDS011;45528;52.102;5.242;2022-07-29T04:33:29;8.1;;;2.0;;
32451;SDS011;45528;52.102;5.242;2022-07-29T04:35:15;3.2;;;1.5;;
32451;SDS011;45528;52.102;5.242;2022-07-29T04:37:01;2.5;;;1.4;;
32451;SDS011;45528;52.102;5.242;2022-07-29T04:40:36;4.5;;;1.8;;
32451;SDS011;45528;52.102;5.242;2022-07-29T04:42:22;3.1;;;1.7;;
32451;SDS011;45528;52.102;5.242;2022-07-29T04:44:08;3.1;;;1.7;;
32451;SDS011;45528;52.102;5.242;2022-07-29T04:45:54;2.4;;;1.4;;
32451;SDS011;45528;52.102;5.242;2022-07-29T04:47:40;4.1;;;1.4;;
32451;SDS011;45528;52.102;5.242;2022-07-29T04:51:14;5.0;;;1.7;;
32451;SDS011;45528;52.102;5.242;2022-07-29T04:53:02;3.1;;;1.5;;
32451;SDS011;45528;52.102;5.242;2022-07-29T04:54:48;5.3;;;1.8;;
32451;SDS011;45528;52.102;5.242;2022-07-29T04:56:35;4.2;;;1.7;;
32451;SDS011;45528;52.102;5.242;2022-07-29T04:58:23;3.3;;;1.4;;
32451;SDS011;45528;52.102;5.242;2022-07-29T05:00:10;2.21;;;1.5;;
32451;SDS011;45528;52.102;5.242;2022-07-29T05:03:44;3.1;;;1.4;;
32451;SDS011;45528;52.102;5.242;2022-07-29T05:05:30;5.0;;;2.0;;
32451;SDS011;45528;52.102;5.242;2022-07-29T05:07:17;3.4;;;1.7;;
32451;SDS011;45528;52.102;5.242;2022-07-29T05:09:03;3.4;;;1.6;;
32451;SDS011;45528;52.102;5.242;2022-07-29T05:10:50;3.5;;;1.6;;
32451;SDS011;45528;52.102;5.242;2022-07-29T05:12:37;3.9;;;1.6;;
32451;SDS011;45528;52.102;5.242;2022-07-29T05:16:10;5.5;;;1.6;;
32451;SDS011;45528;52.102;5.242;2022-07-29T05:17:56;2.6;;;1.5;;
32451;SDS011;45528;52.102;5.242;2022-07-29T05:19:42;4.41;;;1.5;;
32451;SDS011;45528;52.102;5.242;2022-07-29T05:21:29;5.4;;;1.6;;
32451;SDS011;45528;52.102;5.242;2022-07-29T05:23:16;3.0;;;1.5;;
32451;SDS011;45528;52.102;5.242;2022-07-29T05:26:50;2.31;;;1.4;;
32451;SDS011;45528;52.102;5.242;2022-07-29T05:28:36;4.91;;;1.7;;
32451;SDS011;45528;52.102;5.242;2022-07-29T05:30:23;2.7;;;1.6;;
32451;SDS011;45528;52.102;5.242;2022-07-29T05:32:10;2.9;;;1.6;;
32451;SDS011;45528;52.102;5.242;2022-07-29T05:33:58;3.2;;;1.8;;
32451;SDS011;45528;52.102;5.242;2022-07-29T05:35:44;3.4;;;1.8;;
32451;SDS011;45528;52.102;5.242;2022-07-29T05:39:17;4.1;;;1.5;;
32451;SDS011;45528;52.102;5.242;2022-07-29T05:41:03;4.3;;;1.5;;
32451;SDS011;45528;52.102;5.242;2022-07-29T05:42:50;5.2;;;1.5;;
32451;SDS011;45528;52.102;5.242;2022-07-29T05:44:38;3.0;;;1.5;;
32451;SDS011;45528;52.102;5.242;2022-07-29T05:46:25;4.3;;;1.5;;
32451;SDS011;45528;52.102;5.242;2022-07-29T05:48:12;3.7;;;1.7;;
32451;SDS011;45528;52.102;5.242;2022-07-29T05:51:44;4.3;;;1.6;;
32451;SDS011;45528;52.102;5.242;2022-07-29T05:53:30;4.7;;;1.6;;
32451;SDS011;45528;52.102;5.242;2022-07-29T05:55:17;5.7;;;1.7;;
32451;SDS011;45528;52.102;5.242;2022-07-29T05:57:05;3.5;;;1.7;;
32451;SDS011;45528;52.102;5.242;2022-07-29T05:58:52;4.3;;;1.7;;
32451;SDS011;45528;52.102;5.242;2022-07-29T06:00:40;3.7;;;1.6;;
32451;SDS011;45528;52.102;5.242;2022-07-29T06:04:12;2.8;;;1.5;;
32451;SDS011;45528;52.102;5.242;2022-07-29T06:05:59;1.6;;;1.2;;
32451;SDS011;45528;52.102;5.242;2022-07-29T06:07:45;3.7;;;1.8;;
32451;SDS011;45528;52.102;5.242;2022-07-29T06:09:32;3.2;;;1.6;;
32451;SDS011;45528;52.102;5.242;2022-07-29T06:11:19;4.5;;;1.6;;
32451;SDS011;45528;52.102;5.242;2022-07-29T06:14:51;3.4;;;1.8;;
32451;SDS011;45528;52.102;5.242;2022-07-29T06:16:37;4.5;;;1.8;;
32451;SDS011;45528;52.102;5.242;2022-07-29T06:18:23;3.5;;;1.7;;
32451;SDS011;45528;52.102;5.242;2022-07-29T06:20:10;3.3;;;1.6;;
32451;SDS011;45528;52.102;5.242;2022-07-29T06:21:57;3.0;;;1.6;;
32451;SDS011;45528;52.102;5.242;2022-07-29T06:23:45;4.41;;;1.8;;
32451;SDS011;45528;52.102;5.242;2022-07-29T06:27:20;4.61;;;1.6;;
32451;SDS011;45528;52.102;5.242;2022-07-29T06:29:07;5.0;;;1.7;;
32451;SDS011;45528;52.102;5.242;2022-07-29T06:30:54;3.0;;;1.5;;
32451;SDS011;45528;52.102;5.242;2022-07-29T06:32:42;4.5;;;1.9;;
32451;SDS011;45528;52.102;5.242;2022-07-29T06:34:28;3.3;;;1.8;;
32451;SDS011;45528;52.102;5.242;2022-07-29T06:36:14;4.61;;;1.6;;
32451;SDS011;45528;52.102;5.242;2022-07-29T06:41:00;3.7;;;1.8;;
32451;SDS011;45528;52.102;5.242;2022-07-29T06:42:46;2.6;;;1.7;;
32451;SDS011;45528;52.102;5.242;2022-07-29T06:46:20;2.21;;;1.5;;
32451;SDS011;45528;52.102;5.242;2022-07-29T06:48:08;3.4;;;1.6;;
32451;SDS011;45528;52.102;5.242;2022-07-29T06:49:55;4.2;;;1.8;;
32451;SDS011;45528;52.102;5.242;2022-07-29T06:51:41;3.9;;;1.7;;
32451;SDS011;45528;52.102;5.242;2022-07-29T06:53:28;3.4;;;1.5;;
32451;SDS011;45528;52.102;5.242;2022-07-29T06:55:16;2.6;;;1.6;;
32451;SDS011;45528;52.102;5.242;2022-07-29T06:58:48;3.7;;;1.8;;
32451;SDS011;45528;52.102;5.242;2022-07-29T07:00:34;4.41;;;1.8;;
32451;SDS011;45528;52.102;5.242;2022-07-29T07:02:21;3.5;;;1.9;;
32451;SDS011;45528;52.102;5.242;2022-07-29T07:04:09;4.8;;;1.9;;
32451;SDS011;45528;52.102;5.242;2022-07-29T07:05:56;6.5;;;2.21;;
32451;SDS011;45528;52.102;5.242;2022-07-29T07:07:43;5.3;;;2.1;;
32451;SDS011;45528;52.102;5.242;2022-07-29T07:11:15;5.11;;;2.21;;
32451;SDS011;45528;52.102;5.242;2022-07-29T07:13:01;5.11;;;2.21;;
32451;SDS011;45528;52.102;5.242;2022-07-29T07:14:49;4.3;;;2.0;;
32451;SDS011;45528;52.102;5.242;2022-07-29T07:16:35;3.0;;;1.8;;
32451;SDS011;45528;52.102;5.242;2022-07-29T07:18:22;3.7;;;1.9;;
32451;SDS011;45528;52.102;5.242;2022-07-29T07:21:55;4.61;;;1.7;;
32451;SDS011;45528;52.102;5.242;2022-07-29T07:23:42;2.7;;;1.8;;
32451;SDS011;45528;52.102;5.242;2022-07-29T07:25:28;3.6;;;1.8;;
32451;SDS011;45528;52.102;5.242;2022-07-29T07:27:14;4.7;;;3.5;;
32451;SDS011;45528;52.102;5.242;2022-07-29T07:29:00;4.7;;;2.31;;
32451;SDS011;45528;52.102;5.242;2022-07-29T07:30:47;4.7;;;1.8;;
32451;SDS011;45528;52.102;5.242;2022-07-29T07:34:21;3.8;;;2.1;;
32451;SDS011;45528;52.102;5.242;2022-07-29T07:36:07;4.91;;;1.9;;
32451;SDS011;45528;52.102;5.242;2022-07-29T07:37:53;3.7;;;2.1;;
32451;SDS011;45528;52.102;5.242;2022-07-29T07:39:41;4.2;;;1.7;;
32451;SDS011;45528;52.102;5.242;2022-07-29T07:41:27;3.3;;;1.5;;
32451;SDS011;45528;52.102;5.242;2022-07-29T07:43:14;3.3;;;1.5;;
32451;SDS011;45528;52.102;5.242;2022-07-29T07:46:46;2.31;;;1.6;;
32451;SDS011;45528;52.102;5.242;2022-07-29T07:48:34;4.1;;;1.9;;
32451;SDS011;45528;52.102;5.242;2022-07-29T07:50:21;5.0;;;2.0;;
32451;SDS011;45528;52.102;5.242;2022-07-29T07:52:07;6.1;;;2.0;;
32451;SDS011;45528;52.102;5.242;2022-07-29T07:53:54;4.5;;;1.9;;
32451;SDS011;45528;52.102;5.242;2022-07-29T07:57:29;4.41;;;1.9;;
32451;SDS011;45528;52.102;5.242;2022-07-29T07:59:15;4.0;;;1.8;;
32451;SDS011;45528;52.102;5.242;2022-07-29T08:01:02;3.5;;;1.8;;
32451;SDS011;45528;52.102;5.242;2022-07-29T08:02:49;3.4;;;1.9;;
32451;SDS011;45528;52.102;5.242;2022-07-29T08:04:36;4.2;;;1.7;;
32451;SDS011;45528;52.102;5.242;2022-07-29T08:06:24;8.31;;;2.7;;
32451;SDS011;45528;52.102;5.242;2022-07-29T08:09:57;4.0;;;1.8;;
32451;SDS011;45528;52.102;5.242;2022-07-29T08:11:43;4.5;;;1.9;;
32451;SDS011;45528;52.102;5.242;2022-07-29T08:13:30;4.0;;;1.8;;
32451;SDS011;45528;52.102;5.242;2022-07-29T08:15:16;3.8;;;1.8;;
32451;SDS011;45528;52.102;5.242;2022-07-29T08:17:02;4.61;;;1.9;;
32451;SDS011;45528;52.102;5.242;2022-07-29T08:18:49;3.2;;;1.9;;
32451;SDS011;45528;52.102;5.242;2022-07-29T08:22:23;4.8;;;1.9;;
32451;SDS011;45528;52.102;5.242;2022-07-29T08:25:13;6.0;;;2.0;;
32451;SDS011;45528;52.102;5.242;2022-07-29T08:26:59;4.41;;;1.9;;
32451;SDS011;45528;52.102;5.242;2022-07-29T08:28:46;6.1;;;2.1;;
32451;SDS011;45528;52.102;5.242;2022-07-29T08:30:34;5.9;;;1.9;;
32451;SDS011;45528;52.102;5.242;2022-07-29T08:32:20;4.1;;;1.7;;
32451;SDS011;45528;52.102;5.242;2022-07-29T08:34:08;4.3;;;1.7;;
32451;SDS011;45528;52.102;5.242;2022-07-29T08:35:55;2.5;;;1.8;;
32451;SDS011;45528;52.102;5.242;2022-07-29T08:37:42;2.8;;;1.6;;
32451;SDS011;45528;52.102;5.242;2022-07-29T08:41:15;3.1;;;1.5;;
32451;SDS011;45528;52.102;5.242;2022-07-29T08:43:04;4.0;;;1.6;;
32451;SDS011;45528;52.102;5.242;2022-07-29T08:44:53;5.5;;;2.0;;
32451;SDS011;45528;52.102;5.242;2022-07-29T08:46:41;2.6;;;1.8;;
32451;SDS011;45528;52.102;5.242;2022-07-29T08:48:28;6.2;;;2.0;;
32451;SDS011;45528;52.102;5.242;2022-07-29T08:50:15;3.7;;;1.9;;
32451;SDS011;45528;52.102;5.242;2022-07-29T08:53:49;2.8;;;1.6;;
32451;SDS011;45528;52.102;5.242;2022-07-29T08:55:38;3.6;;;1.7;;
32451;SDS011;45528;52.102;5.242;2022-07-29T08:57:26;6.4;;;1.7;;
32451;SDS011;45528;52.102;5.242;2022-07-29T08:59:13;2.6;;;1.6;;
32451;SDS011;45528;52.102;5.242;2022-07-29T09:01:01;3.5;;;1.8;;
32451;SDS011;45528;52.102;5.242;2022-07-29T09:02:49;3.9;;;1.8;;
32451;SDS011;45528;52.102;5.242;2022-07-29T09:06:32;2.7;;;1.6;;
32451;SDS011;45528;52.102;5.242;2022-07-29T09:08:23;5.6;;;2.0;;
32451;SDS011;45528;52.102;5.242;2022-07-29T09:10:10;3.6;;;1.6;;
32451;SDS011;45528;52.102;5.242;2022-07-29T09:11:56;3.6;;;1.7;;
32451;SDS011;45528;52.102;5.242;2022-07-29T09:13:46;3.6;;;1.9;;
32451;SDS011;45528;52.102;5.242;2022-07-29T09:15:32;4.61;;;1.7;;
32451;SDS011;45528;52.102;5.242;2022-07-29T09:19:26;2.5;;;1.7;;
32451;SDS011;45528;52.102;5.242;2022-07-29T09:24:15;3.3;;;1.5;;
32451;SDS011;45528;52.102;5.242;2022-07-29T09:26:04;4.7;;;1.6;;
32451;SDS011;45528;52.102;5.242;2022-07-29T09:27:51;4.2;;;1.7;;
32451;SDS011;45528;52.102;5.242;2022-07-29T09:31:31;3.2;;;1.6;;
32451;SDS011;45528;52.102;5.242;2022-07-29T09:33:20;5.5;;;1.6;;
32451;SDS011;45528;52.102;5.242;2022-07-29T09:35:16;3.5;;;1.4;;
32451;SDS011;45528;52.102;5.242;2022-07-29T09:37:05;2.9;;;1.3;;
32451;SDS011;45528;52.102;5.242;2022-07-29T09:38:56;3.3;;;1.11;;
32451;SDS011;45528;52.102;5.242;2022-07-29T09:40:43;3.7;;;1.4;;
32451;SDS011;45528;52.102;5.242;2022-07-29T09:42:43;1.8;;;1.0;;
32451;SDS011;45528;52.102;5.242;2022-07-29T09:46:34;4.1;;;1.8;;
32451;SDS011;45528;52.102;5.242;2022-07-29T09:48:22;2.9;;;1.3;;
32451;SDS011;45528;52.102;5.242;2022-07-29T09:50:10;2.21;;;1.3;;
32451;SDS011;45528;52.102;5.242;2022-07-29T09:51:59;5.3;;;1.5;;
32451;SDS011;45528;52.102;5.242;2022-07-29T09:53:50;3.4;;;1.3;;
32451;SDS011;45528;52.102;5.242;2022-07-29T09:55:52;6.8;;;1.7;;
32451;SDS011;45528;52.102;5.242;2022-07-29T09:57:39;3.1;;;1.2;;
32451;SDS011;45528;52.102;5.242;2022-07-29T09:59:26;4.7;;;1.2;;
32451;SDS011;45528;52.102;5.242;2022-07-29T10:03:00;3.8;;;1.4;;
32451;SDS011;45528;52.102;5.242;2022-07-29T10:04:47;2.21;;;1.11;;
32451;SDS011;45528;52.102;5.242;2022-07-29T10:06:34;4.1;;;1.4;;
32451;SDS011;45528;52.102;5.242;2022-07-29T10:08:41;4.61;;;1.4;;
32451;SDS011;45528;52.102;5.242;2022-07-29T10:10:28;5.5;;;1.2;;
32451;SDS011;45528;52.102;5.242;2022-07-29T10:12:18;3.3;;;1.6;;
32451;SDS011;45528;52.102;5.242;2022-07-29T10:14:05;3.5;;;1.4;;
32451;SDS011;45528;52.102;5.242;2022-07-29T10:17:39;6.4;;;1.0;;
32451;SDS011;45528;52.102;5.242;2022-07-29T10:19:27;2.1;;;1.11;;
32451;SDS011;45528;52.102;5.242;2022-07-29T10:21:15;4.8;;;1.3;;
32451;SDS011;45528;52.102;5.242;2022-07-29T10:23:02;2.9;;;1.11;;
32451;SDS011;45528;52.102;5.242;2022-07-29T10:24:50;4.7;;;1.3;;
32451;SDS011;45528;52.102;5.242;2022-07-29T10:26:41;3.7;;;1.4;;
32451;SDS011;45528;52.102;5.242;2022-07-29T10:28:29;3.0;;;1.2;;
32451;SDS011;45528;52.102;5.242;2022-07-29T10:32:09;4.41;;;1.5;;
32451;SDS011;45528;52.102;5.242;2022-07-29T10:34:07;3.4;;;1.2;;
32451;SDS011;45528;52.102;5.242;2022-07-29T10:36:07;4.0;;;1.11;;
32451;SDS011;45528;52.102;5.242;2022-07-29T10:38:15;4.91;;;1.2;;
32451;SDS011;45528;52.102;5.242;2022-07-29T10:41:50;3.5;;;1.0;;
32451;SDS011;45528;52.102;5.242;2022-07-29T10:43:58;3.0;;;1.11;;
32451;SDS011;45528;52.102;5.242;2022-07-29T10:45:47;3.1;;;1.3;;
32451;SDS011;45528;52.102;5.242;2022-07-29T10:47:36;4.1;;;1.11;;
32451;SDS011;45528;52.102;5.242;2022-07-29T10:51:10;2.9;;;1.2;;
32451;SDS011;45528;52.102;5.242;2022-07-29T10:52:57;3.1;;;1.11;;
32451;SDS011;45528;52.102;5.242;2022-07-29T10:54:47;4.7;;;1.3;;
32451;SDS011;45528;52.102;5.242;2022-07-29T10:56:36;4.1;;;1.3;;
32451;SDS011;45528;52.102;5.242;2022-07-29T10:58:23;3.4;;;1.2;;
32451;SDS011;45528;52.102;5.242;2022-07-29T11:00:27;2.8;;;1.2;;
32451;SDS011;45528;52.102;5.242;2022-07-29T11:02:50;3.7;;;1.0;;
32451;SDS011;45528;52.102;5.242;2022-07-29T11:05:08;2.21;;;1.2;;
32451;SDS011;45528;52.102;5.242;2022-07-29T11:07:08;3.2;;;1.2;;
32451;SDS011;45528;52.102;5.242;2022-07-29T11:09:27;2.6;;;1.2;;
32451;SDS011;45528;52.102;5.242;2022-07-29T11:13:55;4.2;;;1.2;;
32451;SDS011;45528;52.102;5.242;2022-07-29T11:15:57;2.8;;;1.2;;
32451;SDS011;45528;52.102;5.242;2022-07-29T11:18:03;2.4;;;1.3;;
32451;SDS011;45528;52.102;5.242;2022-07-29T11:19:52;2.4;;;1.11;;
32451;SDS011;45528;52.102;5.242;2022-07-29T11:22:31;3.5;;;1.2;;
32451;SDS011;45528;52.102;5.242;2022-07-29T11:24:21;3.6;;;1.6;;
32451;SDS011;45528;52.102;5.242;2022-07-29T11:26:14;2.4;;;1.3;;
32451;SDS011;45528;52.102;5.242;2022-07-29T11:28:08;3.4;;;1.5;;
32451;SDS011;45528;52.102;5.242;2022-07-29T11:30:04;4.91;;;1.3;;
32451;SDS011;45528;52.102;5.242;2022-07-29T11:31:54;4.7;;;1.5;;
32451;SDS011;45528;52.102;5.242;2022-07-29T11:33:56;3.0;;;1.3;;
32451;SDS011;45528;52.102;5.242;2022-07-29T11:35:43;2.0;;;1.11;;
32451;SDS011;45528;52.102;5.242;2022-07-29T11:38:22;3.7;;;1.6;;
32451;SDS011;45528;52.102;5.242;2022-07-29T11:40:13;3.6;;;1.11;;
32451;SDS011;45528;52.102;5.242;2022-07-29T11:42:37;3.7;;;1.5;;
32451;SDS011;45528;52.102;5.242;2022-07-29T11:44:55;3.3;;;1.4;;
32451;SDS011;45528;52.102;5.242;2022-07-29T11:46:43;3.8;;;1.6;;
32451;SDS011;45528;52.102;5.242;2022-07-29T11:48:31;4.7;;;1.7;;
32451;SDS011;45528;52.102;5.242;2022-07-29T11:50:29;4.1;;;1.4;;
32451;SDS011;45528;52.102;5.242;2022-07-29T11:52:18;5.11;;;1.5;;
32451;SDS011;45528;52.102;5.242;2022-07-29T11:55:59;3.7;;;1.4;;
32451;SDS011;45528;52.102;5.242;2022-07-29T11:57:47;2.8;;;1.3;;
32451;SDS011;45528;52.102;5.242;2022-07-29T11:59:38;3.8;;;1.5;;
32451;SDS011;45528;52.102;5.242;2022-07-29T12:01:27;7.5;;;1.7;;
32451;SDS011;45528;52.102;5.242;2022-07-29T12:03:14;4.2;;;1.4;;
32451;SDS011;45528;52.102;5.242;2022-07-29T12:05:10;2.6;;;1.7;;
32451;SDS011;45528;52.102;5.242;2022-07-29T12:06:57;6.0;;;1.7;;
32451;SDS011;45528;52.102;5.242;2022-07-29T12:10:31;6.2;;;1.4;;
32451;SDS011;45528;52.102;5.242;2022-07-29T12:12:18;4.1;;;1.3;;
32451;SDS011;45528;52.102;5.242;2022-07-29T12:14:05;3.7;;;1.5;;
32451;SDS011;45528;52.102;5.242;2022-07-29T12:15:52;2.7;;;1.5;;
32451;SDS011;45528;52.102;5.242;2022-07-29T12:17:39;3.3;;;1.5;;
32451;SDS011;45528;52.102;5.242;2022-07-29T12:19:25;4.1;;;1.8;;
32451;SDS011;45528;52.102;5.242;2022-07-29T12:23:03;3.5;;;1.6;;
32451;SDS011;45528;52.102;5.242;2022-07-29T12:24:52;6.8;;;2.0;;
32451;SDS011;45528;52.102;5.242;2022-07-29T12:26:48;3.1;;;1.6;;
32451;SDS011;45528;52.102;5.242;2022-07-29T12:28:36;5.5;;;1.8;;
32451;SDS011;45528;52.102;5.242;2022-07-29T12:30:23;5.0;;;1.6;;
32451;SDS011;45528;52.102;5.242;2022-07-29T12:32:21;4.61;;;2.21;;
32451;SDS011;45528;52.102;5.242;2022-07-29T12:34:09;7.7;;;2.0;;
32451;SDS011;45528;52.102;5.242;2022-07-29T12:37:45;5.5;;;1.6;;
32451;SDS011;45528;52.102;5.242;2022-07-29T12:39:34;3.4;;;1.8;;
32451;SDS011;45528;52.102;5.242;2022-07-29T12:41:21;5.2;;;1.8;;
32451;SDS011;45528;52.102;5.242;2022-07-29T12:43:10;3.2;;;1.5;;
32451;SDS011;45528;52.102;5.242;2022-07-29T12:44:57;3.5;;;1.7;;
32451;SDS011;45528;52.102;5.242;2022-07-29T12:47:00;3.0;;;1.7;;
32451;SDS011;45528;52.102;5.242;2022-07-29T12:48:50;3.5;;;1.4;;
32451;SDS011;45528;52.102;5.242;2022-07-29T12:52:42;4.7;;;1.8;;
32451;SDS011;45528;52.102;5.242;2022-07-29T12:54:30;4.5;;;1.7;;
32451;SDS011;45528;52.102;5.242;2022-07-29T12:56:16;6.7;;;2.31;;
32451;SDS011;45528;52.102;5.242;2022-07-29T12:58:03;4.91;;;1.8;;
32451;SDS011;45528;52.102;5.242;2022-07-29T12:59:59;5.2;;;2.0;;
32451;SDS011;45528;52.102;5.242;2022-07-29T13:01:49;6.2;;;1.8;;
32451;SDS011;45528;52.102;5.242;2022-07-29T13:03:46;4.2;;;1.7;;
32451;SDS011;45528;52.102;5.242;2022-07-29T13:05:40;5.6;;;2.0;;
32451;SDS011;45528;52.102;5.242;2022-07-29T13:07:30;5.0;;;1.6;;
32451;SDS011;45528;52.102;5.242;2022-07-29T13:11:06;4.8;;;1.6;;
32451;SDS011;45528;52.102;5.242;2022-07-29T13:13:08;4.91;;;1.5;;
32451;SDS011;45528;52.102;5.242;2022-07-29T13:15:12;6.8;;;2.31;;